createdAt,value
2023-04-18T00:02:25.051Z,10.50
2023-04-18T00:04:56.202Z,11.90
2023-04-18T00:07:27.513Z,11.67
2023-04-18T00:09:57.088Z,11.50
2023-04-18T00:12:27.450Z,12.30
2023-04-18T00:14:58.980Z,11.90
2023-04-18T00:17:42.072Z,12.47
2023-04-18T00:20:15.891Z,12.13
2023-04-18T00:22:46.277Z,10.37
2023-04-18T00:25:19.259Z,12.17
2023-04-18T00:27:47.585Z,11.23
2023-04-18T00:30:16.981Z,11.87
2023-04-18T00:32:50.513Z,12.10
2023-04-18T00:35:24.608Z,12.33
2023-04-18T00:37:52.907Z,12.03
2023-04-18T00:40:24.891Z,10.97
2023-04-18T00:42:56.010Z,11.33
2023-04-18T00:45:24.099Z,11.40
2023-04-18T00:47:55.422Z,13.00
2023-04-18T00:50:32.001Z,12.63
2023-04-18T00:53:00.296Z,13.53
2023-04-18T00:55:30.305Z,11.47
2023-04-18T00:57:59.194Z,11.80
2023-04-18T01:00:27.449Z,11.67
2023-04-18T01:02:58.733Z,12.10
2023-04-18T01:05:31.595Z,12.03
2023-04-18T01:08:04.595Z,12.27
2023-04-18T01:10:34.078Z,12.23
2023-04-18T01:13:12.497Z,12.20
2023-04-18T01:15:42.416Z,11.97
2023-04-18T01:18:11.031Z,11.67
2023-04-18T01:20:49.800Z,10.93
2023-04-18T01:23:18.948Z,11.47
2023-04-18T01:25:53.653Z,13.77
2023-04-18T01:28:26.646Z,11.63
2023-04-18T01:30:54.740Z,11.43
2023-04-18T01:33:23.207Z,11.93
2023-04-18T01:35:55.364Z,12.73
2023-04-18T01:38:26.349Z,14.53
2023-04-18T01:40:59.225Z,12.00
2023-04-18T01:43:30.183Z,13.13
2023-04-18T01:45:59.257Z,11.30
2023-04-18T01:48:27.341Z,12.10
2023-04-18T01:50:55.776Z,13.37
2023-04-18T01:53:25.925Z,12.83
2023-04-18T01:56:03.071Z,13.00
2023-04-18T01:58:37.844Z,13.10
2023-04-18T02:01:06.582Z,12.40
2023-04-18T02:03:36.707Z,11.50
2023-04-18T02:06:19.544Z,11.30
2023-04-18T02:08:48.592Z,11.40
2023-04-18T02:11:20.913Z,12.40
2023-04-18T02:13:49.280Z,11.77
2023-04-18T02:16:20.086Z,11.70
2023-04-18T02:18:48.235Z,10.43
2023-04-18T02:21:18.137Z,12.13
2023-04-18T02:23:52.297Z,10.90
2023-04-18T02:26:25.266Z,11.77
2023-04-18T02:28:53.107Z,11.23
2023-04-18T02:31:21.356Z,11.77
2023-04-18T02:33:49.588Z,10.70
2023-04-18T02:36:17.412Z,11.37
2023-04-18T02:38:46.017Z,11.50
2023-04-18T02:41:17.790Z,11.03
2023-04-18T02:43:49.770Z,11.60
2023-04-18T02:46:24.322Z,10.70
2023-04-18T02:48:52.145Z,11.07
2023-04-18T02:51:20.651Z,12.50
2023-04-18T02:53:55.261Z,11.07
2023-04-18T02:56:25.788Z,11.93
2023-04-18T02:58:57.202Z,11.50
2023-04-18T03:01:25.512Z,10.30
2023-04-18T03:03:53.779Z,10.53
2023-04-18T03:06:25.353Z,10.80
2023-04-18T03:08:55.515Z,10.87
2023-04-18T03:11:25.780Z,10.10
2023-04-18T03:13:55.657Z,12.90
2023-04-18T03:16:29.530Z,11.70
2023-04-18T03:19:06.036Z,11.90
2023-04-18T03:21:37.383Z,12.03
2023-04-18T03:24:06.938Z,10.40
2023-04-18T03:26:35.443Z,10.97
2023-04-18T03:31:59.189Z,9.97
2023-04-18T03:34:27.517Z,11.90
2023-04-18T03:36:56.028Z,12.10
2023-04-18T03:39:29.490Z,11.70
2023-04-18T03:42:00.654Z,11.03
2023-04-18T03:44:33.233Z,10.73
2023-04-18T03:47:02.440Z,11.70
2023-04-18T03:49:30.513Z,11.67
2023-04-18T03:52:00.923Z,11.10
2023-04-18T03:54:30.817Z,10.63
2023-04-18T03:57:02.910Z,12.20
2023-04-18T03:59:33.084Z,12.47
2023-04-18T04:02:01.938Z,12.57
2023-04-18T04:04:30.904Z,11.67
2023-04-18T04:07:01.760Z,13.13
2023-04-18T04:09:31.673Z,11.90
2023-04-18T04:12:00.201Z,11.70
2023-04-18T04:14:28.677Z,11.87
2023-04-18T04:16:58.946Z,12.30
2023-04-18T04:19:28.789Z,12.90
2023-04-18T04:21:57.178Z,13.30
2023-04-18T04:24:29.168Z,12.43
2023-04-18T04:27:03.287Z,13.17
2023-04-18T04:29:35.798Z,12.57
2023-04-18T04:32:06.717Z,11.17
2023-04-18T04:34:41.235Z,13.97
2023-04-18T04:37:14.255Z,12.20
2023-04-18T04:39:42.699Z,11.63
2023-04-18T04:42:12.534Z,12.80
2023-04-18T04:44:43.442Z,14.93
2023-04-18T04:47:14.428Z,12.93
2023-04-18T04:49:45.313Z,12.70
2023-04-18T04:52:24.608Z,12.00
2023-04-18T04:54:55.255Z,12.37
2023-04-18T04:57:23.705Z,13.77
2023-04-18T04:59:56.936Z,12.10
2023-04-18T05:02:28.602Z,13.57
2023-04-18T05:04:57.304Z,15.20
2023-04-18T05:07:28.315Z,13.20
2023-04-18T05:09:56.290Z,13.30
2023-04-18T05:12:24.598Z,12.20
2023-04-18T05:14:53.373Z,12.37
2023-04-18T05:17:29.603Z,12.70
2023-04-18T05:20:09.780Z,13.40
2023-04-18T05:22:41.751Z,12.70
2023-04-18T05:25:10.922Z,12.40
2023-04-18T05:27:39.453Z,12.50
2023-04-18T05:30:08.832Z,13.23
2023-04-18T05:32:42.649Z,12.17
2023-04-18T05:35:12.809Z,12.30
2023-04-18T05:37:47.387Z,13.13
2023-04-18T05:40:16.502Z,12.33
2023-04-18T05:42:45.036Z,12.23
2023-04-18T05:45:18.085Z,11.63
2023-04-18T05:47:48.465Z,10.27
2023-04-18T05:50:20.644Z,11.97
2023-04-18T05:52:49.703Z,12.63
2023-04-18T05:55:17.441Z,12.53
2023-04-18T05:57:47.959Z,11.80
2023-04-18T06:00:17.149Z,11.90
2023-04-18T06:02:45.874Z,11.07
2023-04-18T06:05:15.551Z,12.17
2023-04-18T06:07:48.737Z,12.67
2023-04-18T06:10:18.182Z,12.70
2023-04-18T06:12:56.859Z,11.60
2023-04-18T06:15:24.844Z,12.50
2023-04-18T06:17:53.236Z,11.20
2023-04-18T06:20:23.352Z,11.47
2023-04-18T06:22:53.436Z,11.77
2023-04-18T06:25:23.334Z,10.90
2023-04-18T06:27:53.444Z,11.40
2023-04-18T06:30:26.751Z,11.10
2023-04-18T06:32:55.780Z,10.90
2023-04-18T06:35:26.365Z,10.77
2023-04-18T06:38:00.198Z,11.30
2023-04-18T06:40:28.181Z,11.43
2023-04-18T06:42:57.369Z,10.80
2023-04-18T06:45:28.223Z,11.47
2023-04-18T06:47:56.152Z,12.03
2023-04-18T06:50:29.023Z,10.93
2023-04-18T06:52:58.520Z,11.37
2023-04-18T06:55:28.749Z,11.87
2023-04-18T06:58:02.515Z,12.97
2023-04-18T07:00:33.354Z,12.50
2023-04-18T07:03:02.161Z,11.13
2023-04-18T07:05:30.741Z,11.53
2023-04-18T07:08:02.778Z,12.00
2023-04-18T07:10:30.844Z,13.10
2023-04-18T07:13:08.055Z,11.63
2023-04-18T07:15:37.370Z,11.30
2023-04-18T07:18:20.555Z,12.90
2023-04-18T07:20:54.596Z,11.10
2023-04-18T07:23:24.471Z,11.70
2023-04-18T07:25:58.799Z,11.40
2023-04-18T07:28:27.560Z,10.57
2023-04-18T07:31:00.284Z,11.30
2023-04-18T07:33:31.948Z,11.47
2023-04-18T07:36:02.249Z,11.90
2023-04-18T07:38:32.439Z,12.17
2023-04-18T07:41:02.876Z,11.73
2023-04-18T07:43:33.628Z,12.70
2023-04-18T07:46:05.387Z,13.40
2023-04-18T07:48:35.822Z,12.37
2023-04-18T07:51:07.153Z,13.40
2023-04-18T07:53:36.871Z,11.73
2023-04-18T07:56:05.161Z,12.00
2023-04-18T07:58:33.597Z,11.90
2023-04-18T08:01:01.756Z,10.60
2023-04-18T08:03:33.331Z,12.50
2023-04-18T08:06:02.850Z,13.17
2023-04-18T08:08:35.142Z,12.60
2023-04-18T08:11:04.890Z,10.70
2023-04-18T08:13:33.867Z,11.90
2023-04-18T08:16:03.315Z,11.40
2023-04-18T08:18:35.244Z,12.77
2023-04-18T08:21:03.283Z,11.17
2023-04-18T08:23:34.171Z,10.70
2023-04-18T08:26:02.767Z,11.80
2023-04-18T08:28:35.031Z,10.83
2023-04-18T08:31:08.575Z,10.40
2023-04-18T08:33:39.709Z,12.07
2023-04-18T08:36:12.531Z,11.97
2023-04-18T08:38:41.039Z,12.43
2023-04-18T08:41:10.185Z,10.60
2023-04-18T08:43:43.575Z,11.70
2023-04-18T08:46:14.877Z,11.47
2023-04-18T08:48:43.159Z,10.80
2023-04-18T08:51:13.890Z,11.73
2023-04-18T08:53:45.052Z,12.43
2023-04-18T08:56:16.347Z,13.37
2023-04-18T08:58:45.802Z,12.40
2023-04-18T09:01:15.212Z,12.67
2023-04-18T09:03:44.390Z,12.60
2023-04-18T09:06:18.716Z,13.03
2023-04-18T09:09:00.138Z,11.67
2023-04-18T09:11:31.889Z,10.50
2023-04-18T09:14:08.970Z,13.50
2023-04-18T09:16:47.197Z,12.23
2023-04-18T09:19:18.589Z,11.50
2023-04-18T09:21:50.394Z,12.63
2023-04-18T09:24:24.397Z,11.30
2023-04-18T09:26:54.235Z,13.20
2023-04-18T09:29:25.976Z,13.70
2023-04-18T09:32:01.549Z,12.20
2023-04-18T09:34:30.397Z,10.97
2023-04-18T09:37:09.480Z,11.27
2023-04-18T09:39:40.331Z,12.50
2023-04-18T09:42:16.313Z,12.53
2023-04-18T09:45:04.006Z,13.40
2023-04-18T09:47:36.925Z,12.73
2023-04-18T09:50:05.731Z,11.60
2023-04-18T09:52:36.913Z,12.37
2023-04-18T09:55:09.435Z,12.27
2023-04-18T09:57:40.944Z,11.43
2023-04-18T10:00:13.916Z,12.80
2023-04-18T10:02:49.370Z,13.60
2023-04-18T10:05:20.373Z,14.00
2023-04-18T10:07:56.196Z,11.37
2023-04-18T10:10:24.074Z,12.80
2023-04-18T10:12:57.721Z,11.87
2023-04-18T10:15:31.845Z,11.60
2023-04-18T10:18:06.230Z,11.67
2023-04-18T10:20:36.380Z,12.70
2023-04-18T10:23:37.883Z,12.27
2023-04-18T10:26:11.500Z,12.90
2023-04-18T10:28:51.347Z,11.47
2023-04-18T10:31:23.289Z,13.40
2023-04-18T10:36:30.626Z,11.63
2023-04-18T10:39:09.027Z,10.97
2023-04-18T10:41:53.585Z,10.60
2023-04-18T10:44:23.379Z,10.83
2023-04-18T10:47:24.086Z,11.07
2023-04-18T10:50:07.132Z,11.30
2023-04-18T10:52:40.524Z,12.10
2023-04-18T10:55:18.867Z,10.30
2023-04-18T10:57:51.934Z,10.00
2023-04-18T11:00:22.010Z,11.23
2023-04-18T11:02:56.035Z,11.80
2023-04-18T11:05:29.461Z,10.67
2023-04-18T11:08:00.253Z,10.00
2023-04-18T11:10:34.536Z,10.30
2023-04-18T11:13:09.545Z,10.03
2023-04-18T11:15:45.395Z,9.33
2023-04-18T11:18:15.441Z,10.40
2023-04-18T11:20:58.651Z,9.80
2023-04-18T11:23:29.764Z,9.30
2023-04-18T11:25:59.375Z,9.40
2023-04-18T11:28:28.757Z,7.97
2023-04-18T11:30:59.608Z,9.40
2023-04-18T11:33:32.384Z,9.63
2023-04-18T11:36:02.801Z,9.97
2023-04-18T11:38:33.785Z,8.87
2023-04-18T11:41:04.095Z,9.73
2023-04-18T11:43:34.199Z,8.23
2023-04-18T11:46:05.012Z,8.53
2023-04-18T11:48:41.499Z,8.17
2023-04-18T11:51:11.091Z,9.10
2023-04-18T11:53:46.019Z,8.60
2023-04-18T11:56:16.540Z,8.70
2023-04-18T11:58:45.079Z,9.77
2023-04-18T12:01:20.614Z,7.90
2023-04-18T12:04:10.152Z,8.70
2023-04-18T12:06:51.636Z,7.90
2023-04-18T12:09:21.715Z,8.03
2023-04-18T12:12:02.849Z,9.30
2023-04-18T12:14:31.965Z,9.77
2023-04-18T12:17:01.663Z,8.83
2023-04-18T12:19:33.604Z,9.83
2023-04-18T12:22:03.228Z,10.20
2023-04-18T12:24:32.093Z,9.30
2023-04-18T12:27:02.036Z,8.60
2023-04-18T12:29:35.284Z,8.53
2023-04-18T12:32:05.362Z,10.27
2023-04-18T12:34:37.362Z,9.90
2023-04-18T12:37:06.600Z,10.43
2023-04-18T12:39:34.940Z,9.63
2023-04-18T12:42:02.801Z,11.13
2023-04-18T12:44:33.202Z,9.77
2023-04-18T12:47:00.988Z,9.90
2023-04-18T12:49:30.737Z,9.40
2023-04-18T12:51:59.904Z,9.77
2023-04-18T12:54:36.736Z,9.83
2023-04-18T12:57:06.157Z,10.43
2023-04-18T12:59:34.137Z,10.60
2023-04-18T13:02:01.981Z,8.90
2023-04-18T13:04:32.917Z,9.70
2023-04-18T13:07:02.742Z,8.80
2023-04-18T13:09:34.325Z,7.43
2023-04-18T13:12:03.940Z,8.00
2023-04-18T13:14:31.978Z,8.00
2023-04-18T13:17:02.815Z,8.57
2023-04-18T13:19:32.383Z,8.17
2023-04-18T13:22:05.297Z,8.00
2023-04-18T13:24:34.300Z,7.43
2023-04-18T13:27:10.300Z,7.10
2023-04-18T13:29:40.468Z,6.20
2023-04-18T13:32:09.269Z,5.33
2023-04-18T13:34:40.559Z,5.67
2023-04-18T13:37:12.497Z,5.80
2023-04-18T13:39:41.391Z,5.50
2023-04-18T13:42:13.510Z,5.50
2023-04-18T13:44:45.008Z,5.80
2023-04-18T13:47:16.659Z,6.07
2023-04-18T13:49:51.599Z,5.37
2023-04-18T13:52:21.366Z,4.90
2023-04-18T13:54:50.905Z,6.03
2023-04-18T13:57:20.297Z,5.20
2023-04-18T13:59:50.803Z,4.57
2023-04-18T14:02:19.430Z,5.83
2023-04-18T14:04:47.716Z,4.87
2023-04-18T14:07:28.936Z,4.83
2023-04-18T14:09:57.004Z,5.30
2023-04-18T14:12:24.822Z,5.13
2023-04-18T14:14:59.134Z,4.60
2023-04-18T14:17:27.769Z,4.37
2023-04-18T14:19:58.796Z,4.70
2023-04-18T14:22:28.868Z,4.80
2023-04-18T14:25:01.446Z,4.30
2023-04-18T14:27:30.122Z,4.07
2023-04-18T14:29:57.875Z,5.13
2023-04-18T14:32:26.151Z,5.63
2023-04-18T14:34:54.048Z,5.77
2023-04-18T14:37:26.634Z,5.93
2023-04-18T14:40:01.789Z,5.97
2023-04-18T14:42:29.529Z,5.17
2023-04-18T14:45:05.514Z,5.73
2023-04-18T14:47:42.464Z,5.17
2023-04-18T14:50:12.462Z,6.03
2023-04-18T14:52:45.704Z,4.60
2023-04-18T14:55:16.899Z,5.93
2023-04-18T14:57:46.242Z,5.27
2023-04-18T15:00:15.916Z,5.43
2023-04-18T15:02:44.320Z,4.70
2023-04-18T15:05:17.686Z,5.20
2023-04-18T15:07:52.058Z,4.30
2023-04-18T15:10:25.838Z,5.33
2023-04-18T15:12:59.551Z,4.60
2023-04-18T15:15:28.073Z,4.40
2023-04-18T15:17:58.206Z,4.60
2023-04-18T15:20:29.330Z,4.43
2023-04-18T15:23:01.622Z,4.30
2023-04-18T15:25:32.073Z,4.50
2023-04-18T15:28:03.199Z,4.80
2023-04-18T15:30:31.320Z,4.90
2023-04-18T15:32:59.629Z,4.07
2023-04-18T15:35:29.512Z,4.63
2023-04-18T15:38:00.237Z,4.50
2023-04-18T15:40:28.082Z,4.57
2023-04-18T15:42:59.915Z,5.17
2023-04-18T15:45:30.477Z,5.37
2023-04-18T15:47:58.421Z,5.40
2023-04-18T15:50:28.112Z,6.73
2023-04-18T15:52:59.795Z,6.17
2023-04-18T15:55:29.889Z,5.73
2023-04-18T16:00:44.353Z,5.30
2023-04-18T16:03:13.588Z,5.60
2023-04-18T16:05:42.404Z,6.10
2023-04-18T16:08:15.477Z,7.00
2023-04-18T16:10:44.025Z,5.87
2023-04-18T16:13:14.008Z,6.30
2023-04-18T16:15:43.981Z,6.67
2023-04-18T16:18:17.150Z,6.93
2023-04-18T16:20:44.941Z,6.80
2023-04-18T16:23:12.908Z,7.30
2023-04-18T16:25:58.546Z,6.33
2023-04-18T16:28:29.958Z,6.57
2023-04-18T16:31:03.729Z,6.47
2023-04-18T16:33:34.228Z,6.20
2023-04-18T16:36:03.559Z,6.70
2023-04-18T16:38:32.248Z,5.77
2023-04-18T16:41:03.884Z,7.47
2023-04-18T16:43:39.618Z,7.20
2023-04-18T16:46:07.408Z,6.83
2023-04-18T16:48:39.806Z,6.10
2023-04-18T16:51:07.543Z,7.67
2023-04-18T16:53:45.754Z,6.53
2023-04-18T16:56:14.024Z,6.90
2023-04-18T16:58:43.947Z,7.03
2023-04-18T17:01:12.376Z,6.97
2023-04-18T17:03:43.805Z,6.77
2023-04-18T17:06:24.890Z,7.53
2023-04-18T17:08:54.505Z,6.30
2023-04-18T17:11:25.121Z,7.33
2023-04-18T17:13:58.566Z,6.07
2023-04-18T17:16:28.245Z,6.83
2023-04-18T17:18:57.174Z,6.13
2023-04-18T17:21:35.240Z,7.00
2023-04-18T17:24:09.788Z,7.57
2023-04-18T17:26:39.710Z,6.57
2023-04-18T17:29:09.095Z,7.30
2023-04-18T17:31:37.865Z,7.77
2023-04-18T17:34:06.306Z,7.43
2023-04-18T17:36:35.022Z,7.00
2023-04-18T17:39:06.724Z,6.57
2023-04-18T17:41:37.980Z,7.67
2023-04-18T17:44:07.835Z,7.50
2023-04-18T17:46:38.025Z,6.60
2023-04-18T17:49:06.335Z,6.93
2023-04-18T17:51:34.901Z,6.73
2023-04-18T17:54:03.041Z,8.17
2023-04-18T17:56:33.515Z,8.00
2023-04-18T17:59:07.377Z,6.90
2023-04-18T18:01:37.069Z,7.03
2023-04-18T18:04:11.343Z,6.90
2023-04-18T18:06:39.685Z,6.90
2023-04-18T18:09:07.794Z,7.70
2023-04-18T18:11:36.285Z,7.70
2023-04-18T18:14:07.266Z,7.50
2023-04-18T18:16:35.500Z,8.23
2023-04-18T18:19:14.943Z,6.50
2023-04-18T18:21:47.496Z,7.00
2023-04-18T18:24:20.042Z,6.53
2023-04-18T18:26:51.546Z,9.33
2023-04-18T18:29:20.070Z,9.90
2023-04-18T18:31:48.742Z,8.83
2023-04-18T18:34:20.252Z,11.33
2023-04-18T18:36:48.430Z,7.77
2023-04-18T18:39:17.978Z,8.43
2023-04-18T18:41:54.425Z,8.50
2023-04-18T18:44:24.248Z,8.63
2023-04-18T18:46:56.864Z,8.23
2023-04-18T18:49:32.409Z,9.60
2023-04-18T18:52:00.742Z,10.03
2023-04-18T18:54:31.307Z,8.47
2023-04-18T18:57:03.162Z,8.90
2023-04-18T18:59:32.797Z,8.90
2023-04-18T19:02:01.374Z,8.00
2023-04-18T19:04:46.901Z,8.20
2023-04-18T19:07:17.533Z,9.00
2023-04-18T19:09:46.846Z,7.00
2023-04-18T19:12:15.518Z,8.97
2023-04-18T19:14:49.541Z,8.40
2023-04-18T19:17:24.744Z,8.37
2023-04-18T19:19:59.406Z,7.93
2023-04-18T19:22:28.415Z,8.60
2023-04-18T19:24:57.012Z,8.40
2023-04-18T19:27:29.373Z,8.80
2023-04-18T19:29:57.704Z,7.13
2023-04-18T19:32:26.096Z,8.17
2023-04-18T19:34:56.225Z,9.40
2023-04-18T19:37:24.651Z,9.60
2023-04-18T19:39:55.729Z,8.50
2023-04-18T19:42:28.582Z,9.13
2023-04-18T19:44:57.756Z,8.80
2023-04-18T19:47:36.969Z,9.13
2023-04-18T19:50:08.832Z,8.50
2023-04-18T19:52:50.398Z,9.40
2023-04-18T19:55:21.439Z,9.00
2023-04-18T19:57:50.932Z,7.23
2023-04-18T20:00:22.955Z,8.30
2023-04-18T20:02:53.462Z,8.57
2023-04-18T20:05:26.716Z,7.97
2023-04-18T20:07:58.159Z,8.77
2023-04-18T20:10:27.261Z,7.57
2023-04-18T20:12:58.375Z,8.10
2023-04-18T20:15:30.691Z,8.87
2023-04-18T20:18:00.749Z,8.37
2023-04-18T20:20:34.655Z,8.63
2023-04-18T20:23:05.513Z,8.87
2023-04-18T20:25:35.687Z,8.60
2023-04-18T20:28:04.155Z,8.97
2023-04-18T20:30:37.130Z,9.60
2023-04-18T20:33:10.573Z,9.30
2023-04-18T20:35:50.045Z,9.33
2023-04-18T20:38:21.161Z,8.50
2023-04-18T20:40:55.688Z,9.83
2023-04-18T20:43:29.927Z,10.43
2023-04-18T20:46:01.365Z,8.83
2023-04-18T20:48:32.043Z,10.70
2023-04-18T20:51:05.408Z,9.97
2023-04-18T20:53:34.052Z,8.43
2023-04-18T20:56:03.590Z,8.80
2023-04-18T20:58:32.169Z,8.70
2023-04-18T21:01:04.647Z,9.87
2023-04-18T21:03:37.800Z,9.57
2023-04-18T21:06:08.150Z,10.63
2023-04-18T21:08:38.301Z,9.67
2023-04-18T21:11:09.071Z,8.90
2023-04-18T21:13:41.288Z,9.33
2023-04-18T21:16:12.330Z,9.10
2023-04-18T21:18:44.195Z,9.50
2023-04-18T21:21:13.932Z,9.30
2023-04-18T21:23:45.022Z,9.90
2023-04-18T21:26:13.815Z,10.77
2023-04-18T21:28:58.963Z,9.03
2023-04-18T21:31:30.396Z,9.20
2023-04-18T21:33:59.861Z,10.27
2023-04-18T21:36:33.120Z,10.60
2023-04-18T21:39:02.401Z,9.87
2023-04-18T21:41:33.737Z,9.37
2023-04-18T21:44:01.626Z,10.97
2023-04-18T21:46:30.143Z,11.00
2023-04-18T21:49:01.161Z,10.10
2023-04-18T21:51:31.892Z,9.57
2023-04-18T21:54:00.398Z,9.30
2023-04-18T21:56:29.754Z,9.63
2023-04-18T21:58:57.545Z,11.20
2023-04-18T22:01:25.431Z,8.77
2023-04-18T22:03:54.560Z,10.43
2023-04-18T22:06:24.247Z,9.70
2023-04-18T22:08:53.998Z,9.60
2023-04-18T22:11:23.614Z,9.57
2023-04-18T22:14:01.333Z,10.23
2023-04-18T22:16:33.371Z,9.80
2023-04-18T22:19:01.349Z,10.47
2023-04-18T22:21:30.276Z,9.30
2023-04-18T22:24:01.632Z,9.67
2023-04-18T22:26:31.086Z,10.70
2023-04-18T22:29:01.567Z,8.93
2023-04-18T22:31:29.959Z,9.50
2023-04-18T22:34:05.121Z,10.47
2023-04-18T22:36:35.994Z,9.67
2023-04-18T22:39:07.586Z,9.60
2023-04-18T22:41:35.880Z,10.63
2023-04-18T22:44:04.888Z,9.67
2023-04-18T22:46:47.539Z,9.80
2023-04-18T22:49:18.338Z,9.20
2023-04-18T22:51:46.469Z,9.70
2023-04-18T22:54:16.264Z,10.40
2023-04-18T22:56:46.615Z,10.80
2023-04-18T22:59:17.117Z,11.13
2023-04-18T23:01:44.878Z,10.73
2023-04-18T23:04:21.484Z,8.80
2023-04-18T23:06:50.013Z,9.03
2023-04-18T23:09:22.483Z,9.30
2023-04-18T23:11:50.202Z,10.60
2023-04-18T23:14:18.720Z,10.60
2023-04-18T23:16:47.539Z,8.57
2023-04-18T23:19:15.761Z,9.90
2023-04-18T23:21:46.352Z,10.80
2023-04-18T23:24:16.366Z,9.37
2023-04-18T23:26:47.656Z,10.40
2023-04-18T23:29:16.088Z,10.37
2023-04-18T23:31:44.364Z,10.33
2023-04-18T23:34:14.927Z,9.50
2023-04-18T23:36:45.454Z,9.20
2023-04-18T23:39:13.254Z,9.50
2023-04-18T23:41:41.383Z,9.20
2023-04-18T23:44:10.570Z,9.50
2023-04-18T23:46:40.917Z,10.00
2023-04-18T23:49:10.913Z,9.33
2023-04-18T23:51:39.027Z,10.30
2023-04-18T23:54:07.655Z,9.70
2023-04-18T23:56:36.239Z,9.20
2023-04-18T23:59:04.554Z,11.10
